Shiocton, Wisconsin
Current Conditions -  °F | °C
As of 6:45 AM on Saturday 25 Oct 2014 (Local Time) from KATW Reporting Station
Haze Haze  
Wind Chill: 50°   Ceiling: Unl
Heat Index: 50°   Visibility: 4mi
Dew Point: 48°   Wind: 8mph
Humidity: 94%   Direction: 250°WSW
Pressure: 29.84"   Gusts: NA
Location:  44.44°N, 88.58°W
Report Text: KATW 251145Z 25007KT 4SM BR SCT010 SCT070 10/09 A2984
Loading
Personal Weather Stations






























Interactive Weather Map
Tropical Storm Tracking
New forecast layout! Learn more

10-Day Weather Forecast

Advertisements
Track Severe Weather on mobile